Time,TemperatureF,DewpointF,PressureIn,WindDirection,WindDirectionDegrees,WindSpeedMPH,WindSpeedGustMPH,Humidity,HourlyPrecipIn,Conditions,Clouds,dailyrainin,SoftwareType,DateUTC
2013-07-03 00:00:00,59.5,57.0,30.20,ENE,60,0.0,0.0,92,0.00,,,0.28,weatherlink.com 1.10,2013-07-03 04:00:00,
2013-07-03 00:15:00,59.6,58.0,30.20,ENE,59,0.0,0.0,93,0.00,,,0.00,weatherlink.com 1.10,2013-07-03 04:15:00,
2013-07-03 00:30:00,59.6,57.0,30.20,ENE,59,0.0,0.0,92,0.00,,,0.00,weatherlink.com 1.10,2013-07-03 04:30:00,
2013-07-03 00:45:00,59.6,58.0,30.20,ENE,59,0.0,0.0,93,0.00,,,0.00,weatherlink.com 1.10,2013-07-03 04:45:00,
2013-07-03 01:00:00,59.9,58.0,30.20,West,267,2.0,4.0,94,0.00,,,0.00,weatherlink.com 1.10,2013-07-03 05:00:00,
2013-07-03 01:15:00,59.9,58.0,30.19,NW,309,3.0,4.0,94,0.00,,,0.00,weatherlink.com 1.10,2013-07-03 05:15:00,
2013-07-03 01:30:00,59.7,58.0,30.19,NW,309,0.0,2.0,95,0.00,,,0.00,weatherlink.com 1.10,2013-07-03 05:30:00,
2013-07-03 01:45:00,59.7,58.0,30.19,WNW,297,2.0,4.0,94,0.00,,,0.00,weatherlink.com 1.10,2013-07-03 05:45:00,
2013-07-03 02:15:00,59.6,58.0,30.17,WNW,297,0.0,0.0,95,0.00,,,0.00,weatherlink.com 1.10,2013-07-03 06:15:00,
2013-07-03 02:31:00,59.6,58.0,30.17,WNW,297,0.0,0.0,95,0.00,,,0.00,weatherlink.com 1.10,2013-07-03 06:31:00,
2013-07-03 02:45:00,59.7,59.0,30.17,WNW,297,0.0,0.0,96,0.00,,,0.00,weatherlink.com 1.10,2013-07-03 06:45:00,
2013-07-03 03:31:00,59.8,59.0,30.17,WNW,297,0.0,0.0,96,0.00,,,0.00,weatherlink.com 1.10,2013-07-03 07:31:00,
2013-07-03 03:46:00,59.7,59.0,30.17,WNW,297,0.0,0.0,96,0.00,,,0.00,weatherlink.com 1.10,2013-07-03 07:46:00,
2013-07-03 04:16:00,59.1,58.0,30.17,WNW,297,0.0,0.0,96,0.00,,,0.00,weatherlink.com 1.10,2013-07-03 08:16:00,
2013-07-03 04:46:00,59.1,58.0,30.18,WNW,297,0.0,0.0,96,0.00,,,0.00,weatherlink.com 1.10,2013-07-03 08:46:00,
2013-07-03 05:01:00,59.0,58.0,30.18,WNW,297,0.0,0.0,96,0.00,,,0.00,weatherlink.com 1.10,2013-07-03 09:01:00,
2013-07-03 05:16:00,59.0,58.0,30.18,WNW,297,0.0,0.0,96,0.00,,,0.00,weatherlink.com 1.10,2013-07-03 09:16:00,
2013-07-03 05:31:00,59.0,58.0,30.18,WNW,297,0.0,0.0,97,0.00,,,0.00,weatherlink.com 1.10,2013-07-03 09:31:00,
2013-07-03 06:01:00,59.2,58.0,30.19,WNW,297,0.0,0.0,97,0.00,,,0.00,weatherlink.com 1.10,2013-07-03 10:01:00,
2013-07-03 06:16:00,59.5,59.0,30.20,WNW,297,0.0,0.0,97,0.00,,,0.00,weatherlink.com 1.10,2013-07-03 10:16:00,
2013-07-03 06:47:00,60.1,59.0,30.20,WNW,297,1.0,3.0,96,0.00,,,0.00,weatherlink.com 1.10,2013-07-03 10:47:00,
2013-07-03 07:01:00,59.9,59.0,30.20,WNW,297,0.0,3.0,96,0.00,,,0.00,weatherlink.com 1.10,2013-07-03 11:01:00,
2013-07-03 07:16:00,59.9,59.0,30.20,WNW,297,0.0,0.0,96,0.00,,,0.00,weatherlink.com 1.10,2013-07-03 11:16:00,
2013-07-03 07:31:00,60.0,59.0,30.20,WNW,297,0.0,0.0,96,0.00,,,0.00,weatherlink.com 1.10,2013-07-03 11:31:00,
2013-07-03 07:46:00,60.3,59.0,30.20,WNW,297,3.0,3.0,96,0.00,,,0.00,weatherlink.com 1.10,2013-07-03 11:46:00,
2013-07-03 08:16:00,60.7,60.0,30.20,ESE,113,4.0,5.0,96,0.00,,,0.00,weatherlink.com 1.10,2013-07-03 12:16:00,
2013-07-03 08:31:00,60.7,59.0,30.20,ESE,113,3.0,5.0,95,0.00,,,0.00,weatherlink.com 1.10,2013-07-03 12:31:00,
2013-07-03 08:46:00,61.0,60.0,30.20,ESE,113,7.0,9.0,95,0.00,,,0.00,weatherlink.com 1.10,2013-07-03 12:46:00,
2013-07-03 09:01:00,61.0,59.0,30.19,ESE,121,9.0,11.0,94,0.00,,,0.00,weatherlink.com 1.10,2013-07-03 13:01:00,
2013-07-03 09:16:00,61.6,60.0,30.20,SE,124,8.0,9.0,94,0.00,,,0.00,weatherlink.com 1.10,2013-07-03 13:16:00,
2013-07-03 09:31:00,61.4,60.0,30.20,SE,134,7.0,10.0,94,0.00,,,0.00,weatherlink.com 1.10,2013-07-03 13:31:00,
2013-07-03 10:01:00,62.9,61.0,30.20,SE,145,7.0,8.0,93,0.00,,,0.00,weatherlink.com 1.10,2013-07-03 14:01:00,
2013-07-03 10:16:00,62.7,61.0,30.20,ESE,117,4.0,9.0,93,0.00,,,0.00,weatherlink.com 1.10,2013-07-03 14:16:00,
2013-07-03 10:31:00,64.7,63.0,30.19,NW,312,1.0,8.0,93,0.00,,,0.00,weatherlink.com 1.10,2013-07-03 14:31:00,
2013-07-03 10:46:00,67.6,64.0,30.18,WSW,255,4.0,8.0,87,0.00,,,0.00,weatherlink.com 1.10,2013-07-03 14:46:00,
2013-07-03 11:01:00,68.3,64.0,30.19,West,265,5.0,7.0,86,0.00,,,0.00,weatherlink.com 1.10,2013-07-03 15:01:00,
2013-07-03 11:16:00,68.7,63.0,30.18,ESE,114,4.0,8.0,82,0.00,,,0.00,weatherlink.com 1.10,2013-07-03 15:16:00,
2013-07-03 11:46:00,65.4,62.0,30.18,SE,135,11.0,14.0,87,0.00,,,0.00,weatherlink.com 1.10,2013-07-03 15:46:00,
2013-07-03 12:01:00,66.0,62.0,30.18,ESE,123,9.0,14.0,86,0.00,,,0.00,weatherlink.com 1.10,2013-07-03 16:01:00,
2013-07-03 12:16:00,65.9,62.0,30.18,SE,124,12.0,13.0,87,0.00,,,0.00,weatherlink.com 1.10,2013-07-03 16:16:00,
2013-07-03 12:31:00,65.6,62.0,30.18,SSE,149,12.0,15.0,87,0.00,,,0.00,weatherlink.com 1.10,2013-07-03 16:31:00,
2013-07-03 12:46:00,66.8,63.0,30.18,SE,142,11.0,12.0,86,0.00,,,0.00,weatherlink.com 1.10,2013-07-03 16:46:00,
2013-07-03 13:01:00,67.7,63.0,30.17,SE,130,5.0,9.0,86,0.00,,,0.00,weatherlink.com 1.10,2013-07-03 17:01:00,
2013-07-03 13:16:00,68.8,64.0,30.17,ESE,107,7.0,8.0,85,0.00,,,0.00,weatherlink.com 1.10,2013-07-03 17:16:00,
2013-07-03 13:31:00,68.6,64.0,30.17,SE,133,8.0,11.0,86,0.00,,,0.00,weatherlink.com 1.10,2013-07-03 17:31:00,
2013-07-03 13:46:00,67.7,63.0,30.16,ESE,112,10.0,10.0,85,0.00,,,0.00,weatherlink.com 1.10,2013-07-03 17:46:00,
2013-07-03 14:01:00,67.7,63.0,30.16,ESE,115,8.0,11.0,86,0.00,,,0.00,weatherlink.com 1.10,2013-07-03 18:01:00,
2013-07-03 14:16:00,67.8,64.0,30.16,East,101,8.0,10.0,86,0.00,,,0.00,weatherlink.com 1.10,2013-07-03 18:16:00,
2013-07-03 14:31:00,67.3,64.0,30.16,ESE,115,9.0,11.0,88,0.00,,,0.00,weatherlink.com 1.10,2013-07-03 18:31:00,
2013-07-03 14:46:00,67.1,64.0,30.16,East,96,9.0,11.0,88,0.00,,,0.00,weatherlink.com 1.10,2013-07-03 18:46:00,
2013-07-03 15:16:00,65.6,62.0,30.15,ESE,116,10.0,12.0,88,0.00,,,0.00,weatherlink.com 1.10,2013-07-03 19:16:00,
2013-07-03 15:31:00,66.2,63.0,30.14,East,100,6.0,12.0,89,0.00,,,0.00,weatherlink.com 1.10,2013-07-03 19:31:00,
2013-07-03 15:46:00,65.8,62.0,30.14,ENE,65,7.0,9.0,86,0.00,,,0.00,weatherlink.com 1.10,2013-07-03 19:46:00,
2013-07-03 16:01:00,66.9,63.0,30.14,ESE,105,5.0,8.0,88,0.00,,,0.00,weatherlink.com 1.10,2013-07-03 20:01:00,
2013-07-03 16:17:00,65.3,62.0,30.14,ENE,65,5.0,11.0,90,0.00,,,0.00,weatherlink.com 1.10,2013-07-03 20:17:00,
2013-07-03 16:32:00,64.5,62.0,30.13,ESE,107,8.0,10.0,90,0.00,,,0.00,weatherlink.com 1.10,2013-07-03 20:32:00,
2013-07-03 16:47:00,65.6,63.0,30.13,East,101,8.0,10.0,90,0.00,,,0.00,weatherlink.com 1.10,2013-07-03 20:47:00,
2013-07-03 17:02:00,65.7,63.0,30.13,ENE,74,3.0,9.0,91,0.00,,,0.00,weatherlink.com 1.10,2013-07-03 21:02:00,
2013-07-03 17:17:00,67.5,64.0,30.13,NNE,32,2.0,7.0,87,0.00,,,0.00,weatherlink.com 1.10,2013-07-03 21:17:00,
2013-07-03 17:32:00,68.0,63.0,30.13,NE,49,2.0,6.0,85,0.00,,,0.00,weatherlink.com 1.10,2013-07-03 21:32:00,
2013-07-03 17:47:00,69.5,65.0,30.12,North,11,3.0,4.0,85,0.00,,,0.00,weatherlink.com 1.10,2013-07-03 21:47:00,
2013-07-03 18:02:00,69.9,64.0,30.11,East,94,3.0,5.0,82,0.00,,,0.00,weatherlink.com 1.10,2013-07-03 22:02:00,
2013-07-03 18:17:00,68.8,64.0,30.11,NE,46,4.0,8.0,85,0.00,,,0.00,weatherlink.com 1.10,2013-07-03 22:17:00,
2013-07-03 18:47:00,65.9,62.0,30.12,NE,42,2.0,5.0,88,0.00,,,0.00,weatherlink.com 1.10,2013-07-03 22:47:00,
2013-07-03 19:02:00,65.8,63.0,30.11,NE,39,0.0,2.0,89,0.00,,,0.00,weatherlink.com 1.10,2013-07-03 23:02:00,
2013-07-03 19:32:00,66.6,64.0,30.11,NW,319,0.0,0.0,90,0.00,,,0.00,weatherlink.com 1.10,2013-07-03 23:32:00,
2013-07-03 19:47:00,67.0,64.0,30.11,SSW,200,0.0,2.0,90,0.00,,,0.00,weatherlink.com 1.10,2013-07-03 23:47:00,
2013-07-03 20:02:00,65.6,63.0,30.11,SE,132,3.0,3.0,92,0.00,,,0.00,weatherlink.com 1.10,2013-07-04 00:02:00,
2013-07-03 20:17:00,65.6,63.0,30.12,NE,44,2.0,5.0,92,0.00,,,0.00,weatherlink.com 1.10,2013-07-04 00:17:00,
2013-07-03 20:32:00,65.5,63.0,30.12,North,355,0.0,0.0,92,0.00,,,0.00,weatherlink.com 1.10,2013-07-04 00:32:00,
2013-07-03 20:47:00,65.3,63.0,30.12,NE,55,0.0,5.0,93,0.00,,,0.00,weatherlink.com 1.10,2013-07-04 00:47:00,
2013-07-03 21:02:00,65.6,64.0,30.12,ENE,57,2.0,3.0,94,0.01,,,0.01,weatherlink.com 1.10,2013-07-04 01:02:00,
2013-07-03 21:17:00,66.2,65.0,30.12,SSW,213,0.0,2.0,94,0.01,,,0.01,weatherlink.com 1.10,2013-07-04 01:17:00,
2013-07-03 21:47:00,65.8,64.0,30.12,SSW,213,0.0,0.0,95,0.00,,,0.01,weatherlink.com 1.10,2013-07-04 01:47:00,
2013-07-03 22:02:00,66.1,65.0,30.12,SSW,213,0.0,2.0,95,0.00,,,0.01,weatherlink.com 1.10,2013-07-04 02:02:00,
2013-07-03 22:17:00,66.0,65.0,30.12,SSW,213,0.0,0.0,95,0.00,,,0.01,weatherlink.com 1.10,2013-07-04 02:17:00,
2013-07-03 22:32:00,66.1,65.0,30.12,SSW,213,0.0,0.0,97,0.00,,,0.01,weatherlink.com 1.10,2013-07-04 02:32:00,
2013-07-03 22:47:00,66.4,66.0,30.12,SSW,213,0.0,0.0,97,0.00,,,0.01,weatherlink.com 1.10,2013-07-04 02:47:00,
2013-07-03 23:02:00,65.6,64.0,30.12,SE,126,1.0,3.0,95,0.00,,,0.01,weatherlink.com 1.10,2013-07-04 03:02:00,
2013-07-03 23:17:00,64.5,63.0,30.12,SE,126,0.0,0.0,95,0.00,,,0.01,weatherlink.com 1.10,2013-07-04 03:17:00,
2013-07-03 23:32:00,64.0,63.0,30.12,SE,126,0.0,0.0,95,0.00,,,0.01,weatherlink.com 1.10,2013-07-04 03:32:00,
2013-07-03 23:47:00,64.0,63.0,30.12,SE,126,0.0,0.0,96,0.00,,,0.01,weatherlink.com 1.10,2013-07-04 03:47:00,